Saros B — HOSU — position and weather

sailwx.info

Track history (hours):
 
Tides and Currents Weather Stations Pressure Air Temp Water Temp Dewpoint Dewpoint Depression Visibility Wind Speed Wind Dir Waves Ship Positions

Saros B

Last reported at 2017-Dec-08 13:29 UTC. Time now 2017-Dec-14 12:57 UTC.
Position N 38°05' E 026°18'.

Length 110 m; draft 4.5 m.

Type: Cargo ship. MMSI: 356477000.

Date/timePositionNaut miles runAvg speedWind from/ knotsBaromVisibWave heightAir tempDewpointWater temp
2017-Dec-08 13:29N 38°05' E 026°18'711.6
2017-Dec-08 12:53N 37°59' E 026°22'511.7
2017-Dec-08 12:28N 37°55' E 026°24'611.7
2017-Dec-08 12:00N 37°50' E 026°27'1112.0
2017-Dec-08 11:04N 37°40' E 026°34'112.3
2017-Dec-08 10:59N 37°39' E 026°35'712.0
2017-Dec-08 10:25N 37°33' E 026°40'1212.1
2017-Dec-08 09:23N 37°23' E 026°49'811.7
2017-Dec-08 08:44N 37°16' E 026°53'  
2017-Dec-03 09:03N 31°50' E 034°39'0 0.0
2017-Dec-03 08:51N 31°50' E 034°39'  
Track history (hours):
 
Tides and Currents Weather Stations Pressure Air Temp Water Temp Dewpoint Dewpoint Depression Visibility Wind Speed Wind Dir Waves Ship Positions

Saros B

Last reported at 2017-Dec-08 13:29 UTC. Time now 2017-Dec-14 12:57 UTC.
Position N 38°05' E 026°18'.

Length 110 m; draft 4.5 m.

Type: Cargo ship. MMSI: 356477000.

Date/timePositionNaut miles runAvg speedWind from/ knotsBaromVisibWave heightAir tempDewpointWater temp
2017-Dec-08 13:29N 38°05' E 026°18'711.6
2017-Dec-08 12:53N 37°59' E 026°22'511.7
2017-Dec-08 12:28N 37°55' E 026°24'611.7
2017-Dec-08 12:00N 37°50' E 026°27'1112.0
2017-Dec-08 11:04N 37°40' E 026°34'112.3
2017-Dec-08 10:59N 37°39' E 026°35'712.0
2017-Dec-08 10:25N 37°33' E 026°40'1212.1
2017-Dec-08 09:23N 37°23' E 026°49'811.7
2017-Dec-08 08:44N 37°16' E 026°53'  
2017-Dec-03 09:03N 31°50' E 034°39'0 0.0
2017-Dec-03 08:51N 31°50' E 034°39'  

Dump ship's entire track history